Potou, China
Current Conditions -  °F | °C
As of 9:30 AM on Thursday 23 Oct 2014 (Local Time) from ZBTJ Reporting Station
Haze Haze  
Wind Chill: 61°   Ceiling: Unl
Heat Index: 61°   Visibility: 0.93mi
Dew Point: 52°   Wind: 4mph
Humidity: 72%   Direction: 210°SSW
Pressure: 30.03"   Gusts: NA
Location:  38.08°N, 116.55°E
Report Text: ZBTJ 230130Z 21002MPS 1500 BR NSC 16/11 Q1017 NOSIG
Loading
Personal Weather Stations






























Interactive Weather Map
Tropical Storm Tracking
New forecast layout! Learn more

10-Day Weather Forecast

Advertisements
Track Severe Weather on mobile